createdAt,value
2022-10-19T00:00:00.097Z,100566.40
2022-10-19T00:03:30.098Z,100563.80
2022-10-19T00:06:40.141Z,100558.80
2022-10-19T00:09:50.141Z,100554.60
2022-10-19T00:13:00.146Z,100553.80
2022-10-19T00:16:09.237Z,100549.80
2022-10-19T00:19:21.154Z,100552.20
2022-10-19T00:22:35.421Z,100543.20
2022-10-19T00:25:43.154Z,100537.20
2022-10-19T00:28:50.259Z,100531.40
2022-10-19T00:32:00.094Z,100525.60
2022-10-19T00:35:10.182Z,100520.40
2022-10-19T00:38:20.168Z,100516.00
2022-10-19T00:41:30.188Z,100509.60
2022-10-19T00:44:37.192Z,100495.80
2022-10-19T00:47:47.230Z,100497.40
2022-10-19T00:50:54.239Z,100492.80
2022-10-19T00:54:04.239Z,100489.00
2022-10-19T00:57:11.233Z,100482.80
2022-10-19T01:00:18.235Z,100479.20
2022-10-19T01:03:28.237Z,100478.80
2022-10-19T01:06:35.313Z,100481.20
2022-10-19T01:09:45.266Z,100473.60
2022-10-19T01:12:55.309Z,100472.40
2022-10-19T01:16:02.301Z,100471.00
2022-10-19T01:19:12.632Z,100462.60
2022-10-19T01:22:20.300Z,100454.20
2022-10-19T01:25:27.310Z,100450.40
2022-10-19T01:28:34.372Z,100440.80
2022-10-19T01:31:44.336Z,100435.00
2022-10-19T01:34:54.302Z,100429.60
2022-10-19T01:38:01.325Z,100420.40
2022-10-19T01:41:11.394Z,100421.40
2022-10-19T01:44:21.347Z,100417.80
2022-10-19T01:47:31.663Z,100413.60
2022-10-19T01:50:39.390Z,100408.60
2022-10-19T01:53:49.356Z,100407.80
2022-10-19T01:56:56.337Z,100397.40
2022-10-19T02:00:03.370Z,100405.80
2022-10-19T02:03:13.398Z,100400.00
2022-10-19T02:06:20.423Z,100396.40
2022-10-19T02:09:30.410Z,100392.40
2022-10-19T02:12:37.408Z,100394.60
2022-10-19T02:15:45.476Z,100387.80
2022-10-19T02:18:55.449Z,100376.60
2022-10-19T02:22:02.423Z,100377.80
2022-10-19T02:25:09.455Z,100372.20
2022-10-19T02:28:22.445Z,100367.20
2022-10-19T02:31:32.488Z,100367.40
2022-10-19T02:34:42.534Z,100367.80
2022-10-19T02:37:49.425Z,100359.60
2022-10-19T02:40:56.474Z,100363.00
2022-10-19T02:44:03.611Z,100356.80
2022-10-19T02:47:13.504Z,100362.80
2022-10-19T02:50:23.560Z,100357.60
2022-10-19T02:53:33.508Z,100355.20
2022-10-19T02:56:40.517Z,100353.80
2022-10-19T02:59:50.470Z,100354.80
2022-10-19T03:02:57.518Z,100351.80
2022-10-19T03:06:07.539Z,100347.00
2022-10-19T03:09:14.530Z,100346.60
2022-10-19T03:12:21.510Z,100344.00
2022-10-19T03:15:28.568Z,100343.40
2022-10-19T03:18:38.752Z,100337.40
2022-10-19T03:21:48.539Z,100333.60
2022-10-19T03:24:58.595Z,100335.60
2022-10-19T03:28:05.622Z,100331.80
2022-10-19T03:31:15.563Z,100330.00
2022-10-19T03:34:22.611Z,100328.00
2022-10-19T03:37:33.070Z,100329.80
2022-10-19T03:40:40.625Z,100320.80
2022-10-19T03:43:47.593Z,100320.60
2022-10-19T03:46:54.620Z,100316.00
2022-10-19T03:50:01.665Z,100311.20
2022-10-19T03:53:14.615Z,100308.20
2022-10-19T03:56:24.699Z,100310.00
2022-10-19T03:59:31.661Z,100308.60
2022-10-19T04:02:41.705Z,100301.60
2022-10-19T04:05:51.716Z,100297.80
2022-10-19T04:09:01.756Z,100292.40
2022-10-19T04:12:11.716Z,100286.00
2022-10-19T04:15:25.719Z,100280.80
2022-10-19T04:18:35.853Z,100274.40
2022-10-19T04:21:45.806Z,100270.40
2022-10-19T04:24:57.728Z,100261.20
2022-10-19T04:28:07.793Z,100261.60
2022-10-19T04:31:19.777Z,100256.60
2022-10-19T04:34:26.743Z,100255.00
2022-10-19T04:37:33.966Z,100259.40
2022-10-19T04:40:41.814Z,100247.80
2022-10-19T04:43:51.879Z,100239.00
2022-10-19T04:47:01.856Z,100233.00
2022-10-19T04:50:11.887Z,100241.20
2022-10-19T04:53:21.780Z,100236.40
2022-10-19T04:56:29.851Z,100234.60
2022-10-19T04:59:39.838Z,100230.80
2022-10-19T05:02:46.828Z,100227.20
2022-10-19T05:05:56.869Z,100221.80
2022-10-19T05:09:09.837Z,100214.40
2022-10-19T05:12:16.837Z,100219.00
2022-10-19T05:15:23.984Z,100218.40
2022-10-19T05:18:34.908Z,100230.40
2022-10-19T05:21:41.893Z,100235.20
2022-10-19T05:24:48.860Z,100235.60
2022-10-19T05:27:55.939Z,100235.60
2022-10-19T05:31:08.906Z,100223.80
2022-10-19T05:34:15.894Z,100226.00
2022-10-19T05:37:22.972Z,100228.40
2022-10-19T05:40:33.969Z,100229.20
2022-10-19T05:43:40.910Z,100230.40
2022-10-19T05:46:47.958Z,100229.40
2022-10-19T05:49:55.021Z,100232.60
2022-10-19T05:53:04.965Z,100238.60
2022-10-19T05:56:18.914Z,100243.00
2022-10-19T05:59:25.959Z,100241.00
2022-10-19T06:02:32.996Z,100235.80
2022-10-19T06:05:40.094Z,100237.60
2022-10-19T06:08:50.004Z,100239.60
2022-10-19T06:11:56.970Z,100238.80
2022-10-19T06:15:04.017Z,100226.40
2022-10-19T06:18:13.998Z,100233.40
2022-10-19T06:21:24.016Z,100235.20
2022-10-19T06:24:31.073Z,100228.00
2022-10-19T06:27:42.035Z,100233.00
2022-10-19T06:30:52.067Z,100236.40
2022-10-19T06:34:02.126Z,100232.20
2022-10-19T06:37:09.132Z,100235.20
2022-10-19T06:40:19.244Z,100235.00
2022-10-19T06:43:27.110Z,100226.40
2022-10-19T06:46:34.051Z,100222.40
2022-10-19T06:49:41.153Z,100222.40
2022-10-19T06:52:51.113Z,100224.60
2022-10-19T06:56:01.174Z,100229.00
2022-10-19T06:59:08.114Z,100230.00
2022-10-19T07:02:15.187Z,100226.40
2022-10-19T07:05:25.325Z,100226.20
2022-10-19T07:08:35.152Z,100236.20
2022-10-19T07:11:46.260Z,100237.20
2022-10-19T07:14:54.166Z,100236.00
2022-10-19T07:18:01.199Z,100231.40
2022-10-19T07:21:08.174Z,100230.80
2022-10-19T07:24:15.202Z,100235.60
2022-10-19T07:27:25.196Z,100235.60
2022-10-19T07:30:32.192Z,100229.40
2022-10-19T07:33:39.235Z,100224.20
2022-10-19T07:36:49.349Z,100223.40
2022-10-19T07:39:56.407Z,100217.20
2022-10-19T07:43:07.265Z,100214.80
2022-10-19T07:46:17.255Z,100211.00
2022-10-19T07:49:24.161Z,100209.60
2022-10-19T07:52:33.116Z,100209.60
2022-10-19T07:55:44.339Z,100208.00
2022-10-19T08:02:30.949Z,100212.00
2022-10-19T08:09:07.569Z,100215.20
2022-10-19T08:12:44.388Z,100211.80
2022-10-19T08:15:57.511Z,100210.80
2022-10-19T08:19:08.346Z,100211.40
2022-10-19T08:22:22.489Z,100213.80
2022-10-19T08:25:29.415Z,100208.40
2022-10-19T08:28:59.498Z,100206.40
2022-10-19T08:32:09.492Z,100204.20
2022-10-19T08:35:16.335Z,100199.80
2022-10-19T08:38:29.422Z,100202.00
2022-10-19T08:41:42.485Z,100201.00
2022-10-19T08:44:52.645Z,100205.40
2022-10-19T08:48:05.462Z,100205.40
2022-10-19T08:51:15.371Z,100198.40
2022-10-19T08:54:26.498Z,100200.00
2022-10-19T08:57:57.196Z,100206.60
2022-10-19T09:01:09.439Z,100209.20
2022-10-19T09:05:26.834Z,100203.20
2022-10-19T09:09:29.041Z,100201.40
2022-10-19T09:12:56.364Z,100200.80
2022-10-19T09:16:29.438Z,100203.40
2022-10-19T09:23:19.561Z,100187.20
2022-10-19T09:30:56.706Z,100186.40
2022-10-19T09:37:57.647Z,100170.60
2022-10-19T09:41:11.983Z,100176.60
2022-10-19T09:44:22.553Z,100179.00
2022-10-19T09:47:33.010Z,100177.20
2022-10-19T09:50:40.513Z,100177.80
2022-10-19T09:53:47.595Z,100180.40
2022-10-19T09:56:55.688Z,100182.20
2022-10-19T10:00:05.671Z,100179.40
2022-10-19T10:03:17.630Z,100177.00
2022-10-19T10:06:28.719Z,100177.60
2022-10-19T10:09:44.578Z,100178.00
2022-10-19T10:12:51.712Z,100171.80
2022-10-19T10:16:02.697Z,100167.80
2022-10-19T10:19:13.846Z,100167.80
2022-10-19T10:22:24.642Z,100161.40
2022-10-19T10:25:34.613Z,100160.80
2022-10-19T10:28:44.664Z,100160.60
2022-10-19T10:31:54.640Z,100160.20
2022-10-19T10:35:11.704Z,100154.60
2022-10-19T10:38:21.605Z,100150.40
2022-10-19T10:41:28.723Z,100148.80
2022-10-19T10:44:38.710Z,100144.60
2022-10-19T10:47:48.633Z,100142.20
2022-10-19T10:50:55.708Z,100138.40
2022-10-19T10:54:02.778Z,100133.40
2022-10-19T10:57:09.842Z,100133.00
2022-10-19T11:00:17.805Z,100127.80
2022-10-19T11:03:27.771Z,100124.40
2022-10-19T11:06:39.617Z,100127.80
2022-10-19T11:09:49.737Z,100132.00
2022-10-19T11:12:56.730Z,100119.40
2022-10-19T11:16:03.843Z,100112.60
2022-10-19T11:23:22.283Z,100105.40
2022-10-19T11:30:21.900Z,100098.40
2022-10-19T11:45:04.071Z,100082.80
2022-10-19T11:48:15.942Z,100082.80
2022-10-19T11:51:27.035Z,100088.40
2022-10-19T11:54:52.821Z,100085.80
2022-10-19T11:58:12.037Z,100075.40
2022-10-19T12:01:19.885Z,100067.60
2022-10-19T12:04:29.970Z,100071.60
2022-10-19T12:07:36.907Z,100070.80
2022-10-19T12:10:43.929Z,100071.00
2022-10-19T12:13:56.910Z,100074.80
2022-10-19T12:17:04.101Z,100074.60
2022-10-19T12:20:14.880Z,100062.40
2022-10-19T12:23:27.889Z,100062.00
2022-10-19T12:26:34.897Z,100058.60
2022-10-19T12:29:41.945Z,100060.60
2022-10-19T12:32:54.212Z,100055.80
2022-10-19T12:36:01.977Z,100057.80
2022-10-19T12:39:15.658Z,100056.40
2022-10-19T12:42:27.040Z,100053.80
2022-10-19T12:45:37.052Z,100053.40
2022-10-19T12:48:52.039Z,100057.20
2022-10-19T12:51:59.085Z,100054.80
2022-10-19T12:55:06.082Z,100055.80
2022-10-19T12:58:17.395Z,100059.80
2022-10-19T13:01:25.061Z,100060.80
2022-10-19T13:04:55.237Z,100065.20
2022-10-19T13:08:02.045Z,100061.80
2022-10-19T13:11:12.161Z,100063.60
2022-10-19T13:14:25.121Z,100062.20
2022-10-19T13:17:35.169Z,100056.00
2022-10-19T13:20:49.050Z,100054.00
2022-10-19T13:23:59.186Z,100054.00
2022-10-19T13:27:09.119Z,100053.60
2022-10-19T13:30:16.117Z,100056.60
2022-10-19T13:33:27.161Z,100050.80
2022-10-19T13:36:39.245Z,100049.00
2022-10-19T13:39:49.335Z,100053.80
2022-10-19T13:43:12.910Z,100052.00
2022-10-19T13:46:31.306Z,100051.60
2022-10-19T13:49:47.144Z,100045.40
2022-10-19T13:53:08.182Z,100042.40
2022-10-19T13:56:21.263Z,100043.60
2022-10-19T13:59:28.499Z,100051.00
2022-10-19T14:02:46.239Z,100047.40
2022-10-19T14:05:56.206Z,100037.20
2022-10-19T14:09:06.285Z,100035.20
2022-10-19T14:12:14.218Z,100038.20
2022-10-19T14:15:24.274Z,100036.60
2022-10-19T14:18:36.063Z,100034.60
2022-10-19T14:21:45.244Z,100035.20
2022-10-19T14:24:53.256Z,100042.20
2022-10-19T14:28:06.274Z,100041.80
2022-10-19T14:31:13.275Z,100041.40
2022-10-19T14:34:20.316Z,100036.00
2022-10-19T14:37:30.264Z,100027.20
2022-10-19T14:40:37.267Z,100028.00
2022-10-19T14:43:46.244Z,100021.40
2022-10-19T14:46:53.355Z,100024.40
2022-10-19T14:50:03.411Z,100020.00
2022-10-19T14:53:29.114Z,100015.20
2022-10-19T14:56:39.346Z,100010.80
2022-10-19T14:59:56.353Z,100006.40
2022-10-19T15:03:16.367Z,100001.20
2022-10-19T15:10:01.904Z,100005.20
2022-10-19T15:13:09.385Z,100010.80
2022-10-19T15:16:25.422Z,100014.60
2022-10-19T15:19:57.473Z,100014.40
2022-10-19T15:23:18.571Z,100018.40
2022-10-19T15:26:43.589Z,100015.40
2022-10-19T15:31:03.749Z,100022.60
2022-10-19T15:34:59.886Z,100023.80
2022-10-19T15:38:14.413Z,100022.60
2022-10-19T15:48:43.449Z,100032.00
2022-10-19T15:52:04.480Z,100032.60
2022-10-19T15:55:11.467Z,100031.80
2022-10-19T15:58:25.896Z,100038.20
2022-10-19T16:01:40.544Z,100047.20
2022-10-19T16:04:47.526Z,100049.60
2022-10-19T16:07:54.483Z,100056.60
2022-10-19T16:11:01.589Z,100059.20
2022-10-19T16:14:08.558Z,100069.00
2022-10-19T16:17:15.654Z,100071.80
2022-10-19T16:20:22.540Z,100072.20
2022-10-19T16:23:35.434Z,100074.20
2022-10-19T16:26:45.547Z,100077.40
2022-10-19T16:30:00.399Z,100075.60
2022-10-19T17:32:15.973Z,100126.40
2022-10-19T17:36:23.687Z,100128.60
2022-10-19T17:39:30.793Z,100131.20
2022-10-19T17:42:40.968Z,100127.40
2022-10-19T17:45:57.240Z,100128.20
2022-10-19T17:49:28.805Z,100133.60
2022-10-19T18:00:18.202Z,100134.80
2022-10-19T18:04:13.318Z,100137.20
2022-10-19T18:11:39.678Z,100144.40
2022-10-19T18:15:10.903Z,100142.60
2022-10-19T18:26:27.293Z,100143.80
2022-10-19T18:30:19.605Z,100150.80
2022-10-19T18:34:11.274Z,100155.60
2022-10-19T18:37:11.880Z,100159.80
2022-10-19T18:40:24.991Z,100161.20
2022-10-19T18:43:34.935Z,100169.80
2022-10-19T18:46:53.332Z,100181.40
2022-10-19T18:50:03.030Z,100176.40
2022-10-19T18:53:10.914Z,100177.20
2022-10-19T18:56:24.977Z,100179.80
2022-10-19T18:59:32.050Z,100186.40
2022-10-19T19:02:47.228Z,100187.60
2022-10-19T19:05:54.950Z,100183.40
2022-10-19T19:09:01.969Z,100191.00
2022-10-19T21:27:52.799Z,100272.60
2022-10-19T21:31:49.765Z,100274.80
2022-10-19T21:35:39.223Z,100278.60
2022-10-19T21:39:29.923Z,100266.20
2022-10-19T21:43:19.124Z,100275.20
2022-10-19T21:47:11.978Z,100276.20
2022-10-19T21:51:08.058Z,100270.60
2022-10-19T21:54:25.618Z,100270.60
2022-10-19T21:58:15.898Z,100281.20
2022-10-19T22:02:04.113Z,100281.80
2022-10-19T22:05:52.275Z,100281.00
2022-10-19T22:09:41.154Z,100280.00
2022-10-19T22:13:24.908Z,100273.60
2022-10-19T22:17:33.513Z,100266.60
2022-10-19T22:21:27.560Z,100274.80
2022-10-19T22:25:20.369Z,100281.80
2022-10-19T22:29:15.140Z,100289.60
2022-10-19T22:33:15.504Z,100286.40
2022-10-19T22:37:03.554Z,100289.40
2022-10-19T22:41:01.728Z,100293.20
2022-10-19T22:48:31.772Z,100293.40
2022-10-19T22:52:23.193Z,100296.60
2022-10-19T22:56:11.291Z,100291.40
2022-10-19T23:00:00.106Z,100288.40
2022-10-19T23:07:33.088Z,100294.60
2022-10-19T23:11:28.546Z,100301.20
2022-10-19T23:15:20.535Z,100298.60
2022-10-19T23:19:11.184Z,100297.60
2022-10-19T23:23:03.802Z,100286.00
2022-10-19T23:27:15.198Z,100296.80
2022-10-19T23:31:22.644Z,100296.80
2022-10-19T23:34:44.477Z,100303.20
2022-10-19T23:37:52.979Z,100304.20
2022-10-19T23:40:59.005Z,100306.40
2022-10-19T23:44:03.950Z,100311.20
2022-10-19T23:47:09.975Z,100300.40
2022-10-19T23:50:15.006Z,100311.20
2022-10-19T23:53:21.093Z,100315.60
2022-10-19T23:56:26.034Z,100309.40
2022-10-19T23:59:30.010Z,100317.00
